Florida, New Mexico
Current Conditions -  °F | °C
As of 2:55 PM on Friday 28 Nov 2014 (Local Time) from KONM Reporting Station
Clear Clear  
Wind Chill: 66°   Ceiling: Unl
Heat Index: 66°   Visibility: 10mi
Dew Point: 19°   Wind: 12mph
Humidity: 17%   Direction: 160°SSE
Pressure: 30.1"   Gusts: NA
Location:  33.8946°N, 106.565°W
Report Text: KONM 282155Z AUTO 16010KT 10SM CLR 19/M07 A3010 RMK AO2 T01891071
Loading
Personal Weather Stations






























Interactive Weather Map New forecast layout! Learn more

10-Day Weather Forecast

Advertisements
Track Severe Weather on mobile